Time;durP1;ratioP1;P1;durP2;ratioP2;P2;SDS_P1;SDS_P2;PMS_P1;PMS_P2;Temp;Humidity;BMP_temperature;BMP_pressure;BME280_temperature;BME280_humidity;BME280_pressure;Samples;Min_cycle;Max_cycle;Signal;HPM_P1;HPM_P2
2023/08/24 00:00:00;;;;;;;2.38;1.80;;;;;;;23.43;59.78;99622.31;333340;28;4855;-88
2023/08/24 00:00:13;;;;;;;1.88;1.67;;;;;;;23.44;59.59;99624.81;332739;28;17840;-88
2023/08/24 00:00:25;;;;;;;1.70;1.60;;;;;;;23.41;59.29;99622.44;332795;28;4496;-88
2023/08/24 00:00:40;;;;;;;1.90;1.70;;;;;;;23.40;59.56;99623.41;336110;29;4509;-88
2023/08/24 00:00:52;;;;;;;2.25;1.80;;;;;;;23.40;59.55;99626.06;333209;29;17918;-88
2023/08/24 00:01:04;;;;;;;2.03;1.63;;;;;;;23.41;59.33;99626.91;336288;29;4509;-88
2023/08/24 00:01:17;;;;;;;2.08;1.70;;;;;;;23.39;59.55;99621.72;337063;28;4530;-88
2023/08/24 00:01:29;;;;;;;2.22;1.77;;;;;;;23.40;59.48;99618.09;334153;28;17510;-88
2023/08/24 00:01:41;;;;;;;2.55;1.90;;;;;;;23.41;59.37;99621.59;337403;28;4466;-88
2023/08/24 00:01:53;;;;;;;2.22;1.80;;;;;;;23.42;59.46;99618.81;331761;29;4524;-88
2023/08/24 00:02:06;;;;;;;2.67;1.80;;;;;;;23.41;59.51;99621.59;335859;29;4529;-87
2023/08/24 00:02:18;;;;;;;2.72;1.85;;;;;;;23.41;59.51;99622.44;332460;28;16273;-88
2023/08/24 00:02:30;;;;;;;3.13;2.03;;;;;;;23.41;59.66;99622.44;333356;29;4488;-88
2023/08/24 00:02:42;;;;;;;2.97;1.98;;;;;;;23.37;59.55;99622.84;334908;28;4746;-88
2023/08/24 00:02:54;;;;;;;2.78;1.92;;;;;;;23.37;59.59;99621.00;333043;28;18230;-88
2023/08/24 00:03:06;;;;;;;2.35;1.88;;;;;;;23.37;59.66;99626.31;336208;28;4506;-88
2023/08/24 00:03:21;;;;;;;2.50;1.85;;;;;;;23.39;59.68;99624.38;334056;28;4558;-88
2023/08/24 00:03:33;;;;;;;2.95;1.80;;;;;;;23.39;59.41;99613.75;332514;29;16587;-88
2023/08/24 00:03:48;;;;;;;3.15;1.77;;;;;;;23.39;59.57;99616.41;330498;29;18293;-88
2023/08/24 00:04:00;;;;;;;1.88;1.58;;;;;;;23.40;59.78;99622.56;328702;28;17561;-88
2023/08/24 00:04:12;;;;;;;1.98;1.77;;;;;;;23.37;59.98;99621.00;336011;28;4589;-88
2023/08/24 00:04:24;;;;;;;2.10;1.90;;;;;;;23.35;59.81;99617.66;332704;28;18222;-88
2023/08/24 00:04:37;;;;;;;2.10;1.90;;;;;;;23.35;59.59;99616.81;335644;29;4491;-87
2023/08/24 00:04:49;;;;;;;2.20;1.77;;;;;;;23.30;59.56;99619.84;334871;29;4512;-88
2023/08/24 00:05:01;;;;;;;2.28;1.90;;;;;;;23.27;59.75;99620.13;327803;29;8259;-88
2023/08/24 00:05:13;;;;;;;2.10;1.90;;;;;;;23.26;59.79;99613.13;336119;29;4561;-88
2023/08/24 00:05:25;;;;;;;2.83;2.00;;;;;;;23.24;59.89;99620.38;331415;28;17980;-88
2023/08/24 00:05:37;;;;;;;2.90;2.00;;;;;;;23.23;59.84;99618.72;334712;29;4535;-87
2023/08/24 00:05:49;;;;;;;2.20;1.88;;;;;;;23.24;59.90;99620.38;334581;29;5108;-88
2023/08/24 00:06:01;;;;;;;1.85;1.63;;;;;;;23.25;59.77;99617.59;330953;29;17539;-88
2023/08/24 00:06:13;;;;;;;1.95;1.73;;;;;;;23.26;59.81;99614.00;332009;29;4502;-88
2023/08/24 00:06:25;;;;;;;2.03;1.80;;;;;;;23.28;59.97;99619.16;331291;28;4733;-89
2023/08/24 00:06:38;;;;;;;1.70;1.60;;;;;;;23.28;60.05;99621.78;333780;29;4494;-88
2023/08/24 00:06:50;;;;;;;2.00;1.80;;;;;;;23.29;60.02;99615.53;330810;29;10996;-88
2023/08/24 00:07:03;;;;;;;2.60;2.05;;;;;;;23.26;59.94;99613.13;333759;29;4532;-88
2023/08/24 00:07:15;;;;;;;6.30;2.22;;;;;;;23.27;59.93;99620.97;330900;29;18012;-88
2023/08/24 00:07:27;;;;;;;6.05;2.10;;;;;;;23.28;59.65;99621.78;334834;29;4477;-88
2023/08/24 00:07:39;;;;;;;5.65;2.00;;;;;;;23.24;60.03;99620.38;332166;29;4524;-88
2023/08/24 00:07:52;;;;;;;3.20;1.85;;;;;;;23.27;59.78;99615.66;326967;29;18319;-88
2023/08/24 00:08:05;;;;;;;2.88;1.58;;;;;;;23.27;59.82;99614.81;330060;29;18338;-88
2023/08/24 00:08:17;;;;;;;2.30;1.60;;;;;;;23.28;59.89;99621.78;329744;29;17660;-88
2023/08/24 00:08:29;;;;;;;2.47;1.65;;;;;;;23.27;59.88;99614.81;333137;29;4532;-88
2023/08/24 00:08:41;;;;;;;2.30;1.70;;;;;;;23.29;60.05;99620.84;329493;29;17863;-88
2023/08/24 00:08:53;;;;;;;2.38;1.63;;;;;;;23.27;59.74;99620.13;332294;29;4778;-88
2023/08/24 00:09:05;;;;;;;2.85;1.77;;;;;;;23.27;59.72;99612.19;331061;29;10468;-87
2023/08/24 00:09:17;;;;;;;2.55;1.67;;;;;;;23.23;59.77;99613.41;331635;29;19134;-88
2023/08/24 00:09:29;;;;;;;1.92;1.70;;;;;;;23.13;60.14;99619.50;332128;29;4535;-88
2023/08/24 00:09:41;;;;;;;2.40;1.73;;;;;;;23.12;60.21;99615.19;330841;29;18036;-88
2023/08/24 00:09:53;;;;;;;3.30;1.80;;;;;;;23.10;60.72;99609.16;334396;28;5127;-88
2023/08/24 00:10:07;;;;;;;3.50;1.90;;;;;;;23.15;60.58;99610.59;331374;29;4549;-88
2023/08/24 00:10:19;;;;;;;2.17;1.85;;;;;;;23.16;60.29;99613.09;334099;29;4828;-88
2023/08/24 00:10:31;;;;;;;3.05;2.00;;;;;;;23.16;60.71;99612.25;332993;29;18064;-88
2023/08/24 00:10:47;;;;;;;2.90;1.70;;;;;;;23.16;60.46;99612.25;330897;29;17976;-88
2023/08/24 00:11:00;;;;;;;2.75;1.70;;;;;;;23.15;60.26;99606.13;331926;29;17657;-88
2023/08/24 00:11:14;;;;;;;2.75;1.80;;;;;;;23.12;60.35;99615.19;331176;29;18750;-88
2023/08/24 00:11:26;;;;;;;1.95;1.70;;;;;;;23.13;60.51;99611.53;329398;29;10122;-88
2023/08/24 00:11:38;;;;;;;1.92;1.73;;;;;;;23.13;60.63;99608.88;330382;29;4578;-88
2023/08/24 00:11:51;;;;;;;1.80;1.70;;;;;;;23.12;60.40;99607.22;331788;29;4714;-88
2023/08/24 00:12:04;;;;;;;2.38;1.80;;;;;;;23.13;60.83;99608.06;330841;29;17893;-88
2023/08/24 00:12:16;;;;;;;2.88;1.90;;;;;;;23.17;60.39;99608.63;333122;29;4619;-88
2023/08/24 00:12:28;;;;;;;2.30;1.85;;;;;;;23.17;60.57;99613.94;327948;28;16098;-87
2023/08/24 00:12:41;;;;;;;2.17;1.80;;;;;;;23.17;60.66;99611.28;334369;29;4533;-88
2023/08/24 00:12:52;;;;;;;2.22;1.77;;;;;;;23.11;60.52;99615.31;333486;29;11719;-88
2023/08/24 00:13:05;;;;;;;2.50;1.98;;;;;;;23.14;60.64;99617.72;334748;29;4522;-87
2023/08/24 00:13:17;;;;;;;2.17;1.88;;;;;;;23.15;60.44;99610.59;335150;28;4510;-87
2023/08/24 00:13:30;;;;;;;1.90;1.70;;;;;;;23.17;60.21;99608.63;331755;29;18199;-88
2023/08/24 00:13:52;;;;;;;2.00;1.70;;;;;;;23.18;60.46;99607.66;334553;29;4601;-88
2023/08/24 00:14:04;;;;;;;2.65;2.08;;;;;;;23.17;60.51;99613.94;331722;29;16548;-88
2023/08/24 00:14:16;;;;;;;2.42;2.10;;;;;;;23.18;60.42;99605.00;334404;29;4536;-88
2023/08/24 00:14:28;;;;;;;3.03;2.00;;;;;;;23.19;60.55;99617.31;331823;29;4506;-88
2023/08/24 00:14:40;;;;;;;3.22;1.90;;;;;;;23.18;60.41;99605.88;333323;29;4570;-87
2023/08/24 00:14:52;;;;;;;3.55;1.90;;;;;;;23.18;60.25;99607.66;330930;29;4520;-88
2023/08/24 00:15:05;;;;;;;3.03;1.80;;;;;;;23.18;60.24;99612.94;329391;29;17176;-88
2023/08/24 00:15:17;;;;;;;2.13;1.70;;;;;;;23.19;60.16;99610.19;326825;29;4509;-88
2023/08/24 00:15:30;;;;;;;2.42;1.90;;;;;;;23.21;60.00;99610.06;330539;28;17022;-88
2023/08/24 00:15:42;;;;;;;2.50;1.92;;;;;;;23.21;60.18;99613.53;336005;28;4523;-88
2023/08/24 00:15:54;;;;;;;3.40;1.80;;;;;;;23.20;60.28;99614.53;331891;28;16808;-88
2023/08/24 00:16:07;;;;;;;3.33;1.77;;;;;;;23.19;60.38;99606.69;334837;28;4476;-88
2023/08/24 00:16:20;;;;;;;3.58;1.80;;;;;;;23.15;59.88;99605.28;332814;29;17607;-88
2023/08/24 00:16:32;;;;;;;2.63;1.92;;;;;;;23.15;60.26;99607.94;337038;28;4580;-88
2023/08/24 00:16:44;;;;;;;3.03;2.00;;;;;;;23.16;60.14;99612.25;333732;28;16199;-87
2023/08/24 00:16:56;;;;;;;3.05;1.90;;;;;;;23.17;60.24;99608.63;335858;28;5008;-88
2023/08/24 00:17:08;;;;;;;2.70;1.88;;;;;;;23.16;60.62;99609.59;335797;29;4497;-88
2023/08/24 00:17:20;;;;;;;4.18;1.98;;;;;;;23.15;60.43;99605.28;326937;29;17590;-88
2023/08/24 00:17:32;;;;;;;3.80;2.00;;;;;;;23.15;60.25;99611.41;334605;29;4553;-88
2023/08/24 00:17:44;;;;;;;2.15;1.90;;;;;;;23.15;60.18;99606.13;330812;29;17689;-88
2023/08/24 00:17:56;;;;;;;1.85;1.70;;;;;;;23.15;60.37;99600.81;331984;29;4819;-88
2023/08/24 00:18:09;;;;;;;1.90;1.70;;;;;;;23.17;60.61;99606.00;331647;29;4655;-88
2023/08/24 00:18:23;;;;;;;2.08;1.77;;;;;;;23.15;60.44;99605.28;324426;29;17957;-88
2023/08/24 00:18:35;;;;;;;3.00;1.90;;;;;;;23.15;60.13;99610.59;331071;29;4559;-87
2023/08/24 00:18:48;;;;;;;3.05;1.88;;;;;;;23.13;60.45;99602.75;332480;29;4624;-88
2023/08/24 00:19:00;;;;;;;2.83;1.83;;;;;;;23.15;60.25;99607.94;330975;29;16679;-88
2023/08/24 00:19:12;;;;;;;2.65;1.80;;;;;;;23.17;60.44;99609.47;333423;29;4651;-88
2023/08/24 00:19:24;;;;;;;2.13;1.85;;;;;;;23.17;60.66;99612.13;332857;29;4790;-88
2023/08/24 00:19:36;;;;;;;2.13;1.80;;;;;;;23.15;60.35;99610.59;330689;29;17782;-88
2023/08/24 00:19:48;;;;;;;2.20;1.90;;;;;;;23.15;60.57;99606.13;333399;29;4524;-88
2023/08/24 00:20:04;;;;;;;2.50;2.20;;;;;;;23.13;60.57;99606.25;326709;29;4687;-88
2023/08/24 00:20:16;;;;;;;2.92;2.30;;;;;;;23.10;60.60;99603.88;329851;29;17912;-87
2023/08/24 00:20:28;;;;;;;2.55;1.90;;;;;;;23.09;60.56;99612.78;334617;29;4524;-88
2023/08/24 00:20:40;;;;;;;2.33;1.90;;;;;;;23.11;60.53;99608.19;331768;29;17850;-87
2023/08/24 00:20:52;;;;;;;2.30;2.00;;;;;;;23.06;60.54;99612.19;334729;29;4525;-88
2023/08/24 00:21:04;;;;;;;2.10;1.80;;;;;;;23.04;60.64;99607.03;334695;29;4513;-88
2023/08/24 00:21:22;;;;;;;2.83;1.70;;;;;;;23.04;60.81;99607.03;326571;29;18130;-88
2023/08/24 00:21:35;;;;;;;2.88;1.98;;;;;;;23.07;60.65;99606.75;329850;29;16019;-88
2023/08/24 00:21:47;;;;;;;2.92;2.03;;;;;;;23.07;60.56;99608.59;330890;29;17821;-88
2023/08/24 00:21:59;;;;;;;2.80;1.95;;;;;;;23.07;60.48;99609.41;331599;29;5355;-88
2023/08/24 00:22:11;;;;;;;2.38;1.83;;;;;;;23.08;60.55;99608.47;329345;29;18215;-88
2023/08/24 00:22:23;;;;;;;1.80;1.70;;;;;;;23.08;60.63;99605.81;330177;29;4574;-88
2023/08/24 00:22:37;;;;;;;2.10;1.70;;;;;;;23.09;60.42;99602.16;327877;29;11587;-88
2023/08/24 00:22:49;;;;;;;2.22;1.80;;;;;;;23.11;60.69;99610.84;332155;29;4496;-87
2023/08/24 00:23:01;;;;;;;2.15;1.75;;;;;;;23.14;60.84;99607.09;329755;29;17900;-88
2023/08/24 00:23:13;;;;;;;2.28;1.80;;;;;;;23.16;60.49;99606.94;331214;29;4615;-88
2023/08/24 00:23:25;;;;;;;3.22;1.80;;;;;;;23.16;60.52;99601.63;332192;29;4533;-88
2023/08/24 00:23:38;;;;;;;3.45;1.80;;;;;;;23.18;60.62;99610.31;331232;29;17875;-88
2023/08/24 00:23:50;;;;;;;3.20;1.83;;;;;;;23.18;60.37;99610.31;334171;29;4566;-88
2023/08/24 00:24:03;;;;;;;2.65;1.80;;;;;;;23.20;60.66;99603.06;331593;29;17217;-88
2023/08/24 00:24:15;;;;;;;2.97;1.80;;;;;;;23.19;60.29;99596.91;329748;29;4504;-88
2023/08/24 00:24:27;;;;;;;3.15;1.90;;;;;;;23.21;60.67;99599.44;330555;29;17873;-88
2023/08/24 00:24:39;;;;;;;2.30;1.95;;;;;;;23.21;60.33;99604.75;332064;29;4923;-88
2023/08/24 00:24:51;;;;;;;2.20;2.00;;;;;;;23.20;61.18;99603.06;333153;29;4510;-88
2023/08/24 00:25:05;;;;;;;2.10;1.90;;;;;;;23.20;61.41;99600.41;328972;29;17806;-87
2023/08/24 00:25:18;;;;;;;2.75;1.77;;;;;;;23.20;61.04;99598.63;327497;29;10726;-88
2023/08/24 00:25:30;;;;;;;3.53;1.83;;;;;;;23.21;60.64;99600.28;330819;29;4515;-88
2023/08/24 00:25:42;;;;;;;3.08;1.80;;;;;;;23.21;60.57;99600.28;327376;29;9107;-88
2023/08/24 00:25:54;;;;;;;1.75;1.60;;;;;;;23.18;61.46;99595.25;328962;29;16243;-88
2023/08/24 00:26:06;;;;;;;1.90;1.60;;;;;;;23.19;61.37;99596.09;330761;29;4685;-88
2023/08/24 00:26:19;;;;;;;1.98;1.67;;;;;;;23.20;61.19;99590.66;330118;29;15103;-88
2023/08/24 00:26:31;;;;;;;1.83;1.70;;;;;;;23.19;60.88;99596.91;333254;29;4729;-88
2023/08/24 00:26:43;;;;;;;1.67;1.58;;;;;;;23.21;60.91;99591.50;332353;29;4702;-87
2023/08/24 00:26:55;;;;;;;1.63;1.52;;;;;;;23.21;60.57;99594.97;331909;29;4544;-88
2023/08/24 00:27:07;;;;;;;2.08;1.77;;;;;;;23.21;60.73;99599.44;325357;29;8123;-88
2023/08/24 00:27:19;;;;;;;2.13;1.83;;;;;;;23.22;60.83;99590.50;334639;29;4742;-88
2023/08/24 00:27:31;;;;;;;2.08;1.80;;;;;;;23.21;60.71;99594.16;334703;29;4711;-88
2023/08/24 00:27:44;;;;;;;2.30;1.80;;;;;;;23.22;60.41;99590.50;332588;28;17214;-89
2023/08/24 00:27:56;;;;;;;2.40;1.80;;;;;;;23.22;60.90;99585.19;335990;28;4947;-88
2023/08/24 00:28:08;;;;;;;2.20;1.90;;;;;;;23.17;61.01;99590.91;332544;28;19053;-87
2023/08/24 00:28:20;;;;;;;2.33;1.90;;;;;;;23.16;61.10;99596.34;335479;28;4563;-88
2023/08/24 00:28:32;;;;;;;3.00;1.77;;;;;;;23.11;60.98;99589.63;335583;28;4519;-88
2023/08/24 00:28:45;;;;;;;2.78;1.63;;;;;;;23.11;60.63;99589.63;331837;29;17164;-88
2023/08/24 00:28:57;;;;;;;3.38;1.70;;;;;;;23.09;60.63;99591.56;333465;29;4595;-88
2023/08/24 00:29:09;;;;;;;3.75;1.90;;;;;;;23.09;60.53;99594.22;331102;29;17126;-88
2023/08/24 00:29:21;;;;;;;4.38;2.10;;;;;;;23.11;60.64;99588.78;332811;29;4525;-88
2023/08/24 00:29:33;;;;;;;2.80;1.92;;;;;;;23.12;60.89;99591.31;330631;29;15208;-88
2023/08/24 00:29:45;;;;;;;3.90;1.90;;;;;;;23.14;60.86;99588.53;333536;29;4637;-88
2023/08/24 00:29:57;;;;;;;3.22;1.88;;;;;;;23.15;60.70;99589.38;332959;29;4505;-88
2023/08/24 00:30:10;;;;;;;2.90;1.90;;;;;;;23.16;60.84;99591.03;330846;29;16398;-88
2023/08/24 00:30:23;;;;;;;1.70;1.60;;;;;;;23.16;60.49;99591.91;334259;29;5560;-88
2023/08/24 00:30:37;;;;;;;1.70;1.55;;;;;;;23.17;61.18;99590.06;331115;29;17911;-88
2023/08/24 00:30:49;;;;;;;1.83;1.63;;;;;;;23.17;60.65;99587.44;333125;28;16667;-88
2023/08/24 00:31:01;;;;;;;1.85;1.70;;;;;;;23.18;60.64;99584.66;334627;29;4471;-88
2023/08/24 00:31:16;;;;;;;1.98;1.80;;;;;;;23.19;60.60;99590.78;332503;29;6840;-88
2023/08/24 00:31:28;;;;;;;2.00;1.80;;;;;;;23.18;60.93;99583.78;326974;29;16473;-88
2023/08/24 00:31:40;;;;;;;2.05;1.80;;;;;;;23.14;60.93;99588.53;329793;29;19103;-88
2023/08/24 00:31:52;;;;;;;2.40;2.00;;;;;;;23.09;60.93;99586.25;333661;29;4543;-88
2023/08/24 00:32:04;;;;;;;2.63;2.10;;;;;;;23.05;60.82;99587.50;330753;29;18271;-87
2023/08/24 00:32:17;;;;;;;2.13;1.90;;;;;;;23.02;60.82;99582.47;332763;29;4598;-87
2023/08/24 00:32:30;;;;;;;1.90;1.80;;;;;;;23.03;60.91;99584.13;330866;29;4786;-87
2023/08/24 00:32:42;;;;;;;2.20;2.00;;;;;;;23.03;61.00;99586.78;330669;29;4767;-88
2023/08/24 00:32:54;;;;;;;2.25;1.95;;;;;;;23.01;61.24;99593.16;333140;29;4480;-88
2023/08/24 00:33:06;;;;;;;2.28;1.88;;;;;;;22.96;61.04;99588.28;330598;29;10816;-88
2023/08/24 00:33:19;;;;;;;2.17;1.80;;;;;;;22.99;61.30;99584.50;333264;29;5111;-88
2023/08/24 00:33:31;;;;;;;1.88;1.67;;;;;;;22.97;61.21;99581.97;329095;29;17972;-86
2023/08/24 00:33:43;;;;;;;1.98;1.77;;;;;;;22.98;61.12;99583.69;332906;29;4680;-88
2023/08/24 00:33:55;;;;;;;2.45;1.90;;;;;;;22.98;61.26;99575.72;330380;29;18090;-88
2023/08/24 00:34:07;;;;;;;2.85;1.80;;;;;;;22.99;61.41;99582.69;333439;29;4773;-87
2023/08/24 00:34:19;;;;;;;2.88;1.83;;;;;;;23.02;61.52;99582.47;328399;29;4523;-88
2023/08/24 00:34:31;;;;;;;1.92;1.67;;;;;;;23.01;61.60;99572.78;329058;29;17948;-88
2023/08/24 00:34:43;;;;;;;2.67;1.77;;;;;;;23.01;61.97;99583.41;332153;29;4804;-88
2023/08/24 00:34:55;;;;;;;2.58;1.80;;;;;;;23.00;61.91;99581.75;327818;29;17255;-88
2023/08/24 00:35:10;;;;;;;2.33;1.90;;;;;;;23.02;61.42;99579.81;329151;29;4643;-88
2023/08/24 00:35:22;;;;;;;2.08;1.80;;;;;;;22.97;61.81;99579.34;330303;29;18852;-88
2023/08/24 00:35:34;;;;;;;2.35;1.90;;;;;;;22.99;61.94;99574.75;334429;29;5281;-88
2023/08/24 00:35:46;;;;;;;2.25;1.90;;;;;;;23.01;61.66;99571.97;332488;28;11245;-88
2023/08/24 00:36:01;;;;;;;2.15;1.83;;;;;;;23.00;62.12;99576.44;335970;28;4481;-87
2023/08/24 00:36:14;;;;;;;2.10;1.83;;;;;;;23.00;61.83;99576.44;332373;29;17274;-88
2023/08/24 00:36:26;;;;;;;2.42;1.80;;;;;;;22.98;61.57;99578.38;332242;29;18082;-87
2023/08/24 00:36:38;;;;;;;2.80;1.70;;;;;;;22.99;61.33;99582.69;334962;29;4643;-88
2023/08/24 00:36:50;;;;;;;3.10;1.77;;;;;;;22.97;61.75;99571.38;330665;29;18688;-88
2023/08/24 00:37:02;;;;;;;2.58;1.73;;;;;;;22.99;61.62;99582.69;331981;29;5341;-88
2023/08/24 00:37:14;;;;;;;2.38;1.73;;;;;;;22.99;61.56;99569.44;328935;29;4832;-87
2023/08/24 00:37:26;;;;;;;2.65;1.90;;;;;;;23.00;61.68;99572.91;331903;29;18068;-88
2023/08/24 00:37:38;;;;;;;2.50;1.80;;;;;;;23.01;61.57;99572.78;334051;29;5378;-88
2023/08/24 00:37:51;;;;;;;2.30;1.85;;;;;;;23.02;61.59;99574.53;331848;29;11319;-88
2023/08/24 00:38:04;;;;;;;2.50;1.85;;;;;;;23.04;61.43;99572.56;335737;28;5128;-88
2023/08/24 00:38:16;;;;;;;2.25;1.85;;;;;;;23.04;61.69;99579.66;331159;29;8788;-88
2023/08/24 00:38:28;;;;;;;3.45;1.77;;;;;;;23.06;61.34;99572.44;334622;29;4524;-88
2023/08/24 00:38:40;;;;;;;3.95;1.90;;;;;;;23.04;61.67;99582.31;335856;28;4461;-88
2023/08/24 00:38:53;;;;;;;3.45;2.03;;;;;;;23.03;61.64;99570.88;326957;29;11551;-88
2023/08/24 00:39:06;;;;;;;3.20;2.10;;;;;;;23.02;61.84;99577.16;333044;29;4493;-88
2023/08/24 00:39:18;;;;;;;4.50;1.92;;;;;;;23.00;61.61;99576.44;331282;29;17787;-87
2023/08/24 00:39:30;;;;;;;5.72;1.80;;;;;;;23.03;62.28;99578.84;333615;29;4540;-88
2023/08/24 00:39:42;;;;;;;6.00;1.80;;;;;;;23.03;62.28;99575.34;330811;29;16391;-88
2023/08/24 00:39:55;;;;;;;3.35;1.85;;;;;;;23.04;61.97;99577.88;333005;29;4499;-88
2023/08/24 00:40:09;;;;;;;3.35;1.75;;;;;;;23.03;62.35;99576.19;334786;29;17951;-88
2023/08/24 00:40:21;;;;;;;3.17;1.73;;;;;;;23.05;62.07;99579.53;335271;29;17874;-88
2023/08/24 00:40:34;;;;;;;2.27;1.70;;;;;;;23.06;61.86;99581.25;332399;29;17833;-88
2023/08/24 00:40:46;;;;;;;3.25;1.95;;;;;;;23.08;61.55;99581.09;335116;29;4511;-88
2023/08/24 00:40:59;;;;;;;3.13;1.95;;;;;;;23.06;61.52;99586.53;332727;29;18307;-87
2023/08/24 00:41:12;;;;;;;2.65;2.00;;;;;;;23.06;61.63;99581.25;336145;29;4531;-88
2023/08/24 00:41:25;;;;;;;2.08;1.83;;;;;;;23.06;61.61;99581.25;332193;29;16349;-88
2023/08/24 00:41:37;;;;;;;3.90;1.90;;;;;;;23.07;61.41;99580.25;335068;28;4451;-88
2023/08/24 00:41:49;;;;;;;4.30;1.95;;;;;;;23.08;61.18;99584.59;327376;29;19143;-88
2023/08/24 00:42:01;;;;;;;2.28;1.90;;;;;;;23.07;61.57;99582.91;332077;29;4580;-88
2023/08/24 00:42:15;;;;;;;2.38;1.92;;;;;;;23.10;61.16;99587.97;328134;29;16088;-88
2023/08/24 00:42:27;;;;;;;2.50;1.70;;;;;;;23.12;61.43;99579.88;330948;29;4535;-88
2023/08/24 00:42:43;;;;;;;2.55;1.80;;;;;;;23.12;61.26;99579.88;328302;29;16529;-88
2023/08/24 00:42:55;;;;;;;2.25;1.90;;;;;;;23.04;62.11;99583.19;329693;29;16255;-88
2023/08/24 00:43:07;;;;;;;2.20;1.83;;;;;;;23.05;61.94;99576.91;332259;29;4529;-87
2023/08/24 00:43:23;;;;;;;2.42;1.83;;;;;;;23.02;61.46;99585.13;329173;29;17764;-88
2023/08/24 00:43:35;;;;;;;2.70;1.88;;;;;;;23.00;61.57;99581.75;330533;29;18116;-88
2023/08/24 00:43:50;;;;;;;2.83;1.90;;;;;;;23.00;61.47;99587.03;331970;29;8539;-88
2023/08/24 00:44:02;;;;;;;2.67;1.75;;;;;;;22.98;61.69;99583.69;333581;29;4487;-88
2023/08/24 00:44:14;;;;;;;2.67;1.70;;;;;;;22.97;61.73;99581.97;330120;29;4567;-88
2023/08/24 00:44:26;;;;;;;3.50;1.70;;;;;;;22.98;61.86;99574.88;330175;29;4642;-88
2023/08/24 00:44:38;;;;;;;4.53;1.70;;;;;;;22.99;61.83;99584.50;330546;29;5335;-87
2023/08/24 00:44:50;;;;;;;3.50;1.75;;;;;;;22.98;61.62;99582.81;329078;29;17406;-88
2023/08/24 00:45:02;;;;;;;2.30;1.80;;;;;;;22.99;61.39;99585.34;335071;29;4522;-88
2023/08/24 00:45:14;;;;;;;2.55;2.10;;;;;;;23.02;61.37;99585.13;331982;29;16546;-88
2023/08/24 00:45:27;;;;;;;2.33;2.00;;;;;;;22.95;61.49;99583.94;334291;29;4625;-88
2023/08/24 00:45:39;;;;;;;2.10;1.67;;;;;;;22.91;61.75;99583.34;333271;28;9835;-88
2023/08/24 00:45:51;;;;;;;2.28;1.80;;;;;;;22.90;61.55;99583.50;335515;28;4487;-88
2023/08/24 00:46:04;;;;;;;2.30;1.85;;;;;;;22.91;61.95;99572.75;336164;29;4771;-88
2023/08/24 00:46:16;;;;;;;1.88;1.73;;;;;;;22.93;62.51;99583.22;328461;28;16537;-88
2023/08/24 00:46:28;;;;;;;2.88;1.77;;;;;;;22.93;62.33;99585.88;335102;28;4546;-88
2023/08/24 00:46:41;;;;;;;3.97;2.17;;;;;;;22.94;62.09;99582.25;328310;29;18117;-88
2023/08/24 00:46:53;;;;;;;3.17;2.13;;;;;;;22.93;62.06;99585.88;334985;29;4496;-88
2023/08/24 00:47:07;;;;;;;2.20;1.83;;;;;;;22.91;62.22;99582.50;332283;28;16728;-88
2023/08/24 00:47:19;;;;;;;3.85;1.67;;;;;;;22.90;62.00;99575.53;332952;29;4532;-88
2023/08/24 00:47:32;;;;;;;4.20;1.77;;;;;;;22.90;61.95;99583.50;328897;29;18072;-88
2023/08/24 00:47:47;;;;;;;4.15;1.88;;;;;;;22.90;62.16;99575.53;324255;29;5162;-88
2023/08/24 00:48:01;;;;;;;3.25;1.85;;;;;;;22.92;62.08;99578.91;328411;29;15946;-88
2023/08/24 00:48:13;;;;;;;2.47;1.95;;;;;;;22.90;62.08;99580.84;329702;29;4498;-88
2023/08/24 00:48:28;;;;;;;2.20;1.92;;;;;;;22.92;61.97;99579.72;329015;29;4770;-88
2023/08/24 00:48:40;;;;;;;2.28;1.85;;;;;;;22.91;61.93;99578.03;331082;29;4482;-88
2023/08/24 00:48:56;;;;;;;2.92;1.95;;;;;;;22.92;62.05;99579.72;331742;29;5151;-88
2023/08/24 00:49:09;;;;;;;3.55;2.05;;;;;;;22.94;61.96;99576.97;330890;29;17515;-88
2023/08/24 00:49:22;;;;;;;3.33;2.00;;;;;;;22.91;61.76;99577.22;328267;29;5289;-89
2023/08/24 00:49:34;;;;;;;3.03;2.00;;;;;;;22.89;62.00;99569.38;333737;29;4500;-88
2023/08/24 00:49:46;;;;;;;2.42;1.83;;;;;;;22.90;62.07;99570.25;329383;29;16103;-88
2023/08/24 00:50:00;;;;;;;2.47;2.00;;;;;;;22.91;61.85;99577.22;331749;29;4502;-88
2023/08/24 00:50:12;;;;;;;2.85;2.10;;;;;;;22.91;62.01;99572.75;330755;29;17934;-88
2023/08/24 00:50:24;;;;;;;2.80;2.03;;;;;;;22.94;61.60;99572.50;333280;29;4557;-88
2023/08/24 00:50:36;;;;;;;2.33;1.92;;;;;;;;;;330604;29;4703;-88
2023/08/24 00:50:48;;;;;;;2.75;2.05;;;;;;;22.94;61.96;99571.66;333388;29;4494;-88
2023/08/24 00:51:03;;;;;;;4.20;1.95;;;;;;;22.96;61.87;99564.41;329389;29;17334;-89
2023/08/24 00:51:15;;;;;;;3.53;1.88;;;;;;;22.91;62.38;99567.44;333887;28;4626;-88
2023/08/24 00:51:27;;;;;;;4.10;1.90;;;;;;;22.93;62.16;99569.97;331647;29;19347;-87
2023/08/24 00:51:40;;;;;;;3.28;1.90;;;;;;;22.94;62.18;99574.31;333720;29;4616;-88
2023/08/24 00:51:52;;;;;;;3.45;1.90;;;;;;;22.94;62.18;99569.00;330269;29;10491;-88
2023/08/24 00:52:04;;;;;;;2.47;1.73;;;;;;;22.93;62.49;99567.31;334974;29;4486;-88
2023/08/24 00:52:18;;;;;;;2.10;1.70;;;;;;;22.94;62.28;99569.00;332611;29;4584;-88
2023/08/24 00:52:32;;;;;;;3.60;1.80;;;;;;;22.97;62.04;99566.06;329279;29;18182;-88
2023/08/24 00:52:46;;;;;;;3.33;1.70;;;;;;;22.94;61.83;99567.19;330955;29;17898;-88
2023/08/24 00:52:58;;;;;;;1.77;1.60;;;;;;;;;;330081;29;17591;-88
2023/08/24 00:53:10;;;;;;;2.13;1.75;;;;;;;;;;332893;29;4577;-88
2023/08/24 00:53:25;;;;;;;3.50;1.95;;;;;;;22.90;62.22;99564.94;333081;29;17799;-88
2023/08/24 00:53:38;;;;;;;4.25;2.10;;;;;;;22.90;62.24;99564.94;332040;29;5469;-88
2023/08/24 00:53:50;;;;;;;4.50;2.10;;;;;;;22.85;62.71;99567.97;330495;29;4468;-88
2023/08/24 00:54:02;;;;;;;2.10;1.70;;;;;;;22.86;62.36;99568.81;334703;29;4545;-88
2023/08/24 00:54:15;;;;;;;2.42;1.88;;;;;;;22.86;62.38;99558.22;330289;29;18527;-88
2023/08/24 00:54:27;;;;;;;2.45;2.00;;;;;;;22.87;62.60;99565.19;332415;29;4636;-88
2023/08/24 00:54:41;;;;;;;2.83;2.05;;;;;;;22.88;62.31;99566.88;330227;29;17121;-88
2023/08/24 00:54:53;;;;;;;2.95;2.10;;;;;;;22.85;62.50;99556.53;329834;29;16406;-88
2023/08/24 00:55:06;;;;;;;4.32;2.00;;;;;;;22.88;62.16;99561.59;327259;29;4602;-88
2023/08/24 00:55:20;;;;;;;5.50;1.92;;;;;;;22.83;62.52;99558.47;331906;28;8954;-88
2023/08/24 00:55:33;;;;;;;3.28;1.80;;;;;;;22.79;62.76;99562.34;336381;28;4529;-88
2023/08/24 00:55:45;;;;;;;2.10;1.83;;;;;;;22.74;63.10;99563.59;331070;28;17506;-89
2023/08/24 00:55:58;;;;;;;1.98;1.77;;;;;;;22.76;62.95;99557.31;335976;28;4460;-88
2023/08/24 00:56:10;;;;;;;1.98;1.77;;;;;;;22.75;62.68;99561.78;330991;29;18274;-88
2023/08/24 00:56:24;;;;;;;1.70;1.60;;;;;;;22.76;62.86;99557.31;332979;29;4561;-88
2023/08/24 00:56:36;;;;;;;1.90;1.70;;;;;;;22.78;62.81;99555.34;330911;29;18205;-88
2023/08/24 00:56:49;;;;;;;2.03;1.77;;;;;;;22.77;62.77;99559.00;330548;29;4535;-88
2023/08/24 00:57:01;;;;;;;2.10;1.83;;;;;;;22.78;62.66;99555.34;332397;29;4504;-87
2023/08/24 00:57:13;;;;;;;2.13;1.80;;;;;;;22.79;62.91;99563.19;334760;28;4462;-88
2023/08/24 00:57:27;;;;;;;2.05;1.80;;;;;;;22.79;62.61;99557.88;331578;29;18069;-88
2023/08/24 00:57:43;;;;;;;2.60;2.00;;;;;;;22.78;62.57;99556.22;331192;28;18147;-88
2023/08/24 00:57:56;;;;;;;2.90;1.90;;;;;;;22.80;62.84;99558.72;331161;29;5076;-87
2023/08/24 00:58:10;;;;;;;2.78;1.80;;;;;;;22.78;62.86;99555.34;332596;29;5516;-88
2023/08/24 00:58:23;;;;;;;2.92;2.00;;;;;;;22.78;62.69;99558.00;332358;29;18089;-88
2023/08/24 00:58:35;;;;;;;2.10;1.80;;;;;;;22.71;62.71;99555.06;331423;29;17462;-88
2023/08/24 00:58:47;;;;;;;1.98;1.77;;;;;;;22.71;62.73;99560.34;334789;29;4672;-88
2023/08/24 00:58:59;;;;;;;2.28;1.90;;;;;;;22.71;63.08;99560.34;332219;29;16700;-88
2023/08/24 00:59:11;;;;;;;2.50;2.00;;;;;;;22.69;63.08;99559.63;333465;29;4502;-88
2023/08/24 00:59:24;;;;;;;2.33;1.95;;;;;;;22.71;62.63;99563.84;337258;28;4537;-88
2023/08/24 00:59:36;;;;;;;2.60;2.10;;;;;;;22.67;63.01;99558.94;328207;29;10985;-88
2023/08/24 00:59:48;;;;;;;2.67;2.10;;;;;;;22.62;63.13;99555.84;336205;28;4542;-88
2023/08/24 01:00:05;;;;;;;2.83;1.95;;;;;;;22.63;63.02;99558.34;329669;29;19505;-88
2023/08/24 01:00:17;;;;;;;2.72;1.98;;;;;;;22.67;63.11;99557.13;329867;29;18861;-88
2023/08/24 01:00:30;;;;;;;2.15;1.90;;;;;;;22.67;62.97;99556.28;330518;29;4528;-88